createdAt,value
2018-03-22T00:01:12.713Z,29.58
2018-03-22T00:03:41.542Z,31.07
2018-03-22T00:06:16.907Z,33.87
2018-03-22T00:08:50.564Z,30.83
2018-03-22T00:11:18.718Z,29.00
2018-03-22T00:13:47.120Z,32.33
2018-03-22T00:16:16.069Z,34.70
2018-03-22T00:18:44.213Z,28.55
2018-03-22T00:21:13.157Z,32.33
2018-03-22T00:23:41.293Z,27.80
2018-03-22T00:26:09.436Z,34.58
2018-03-22T00:28:38.066Z,27.93
2018-03-22T00:31:06.673Z,32.07
2018-03-22T00:33:34.809Z,28.60
2018-03-22T00:36:02.998Z,32.63
2018-03-22T00:38:31.663Z,33.05
2018-03-22T00:41:01.916Z,32.23
2018-03-22T00:43:30.039Z,37.70
2018-03-22T00:45:59.371Z,34.40
2018-03-22T00:48:28.944Z,39.53
2018-03-22T00:50:57.152Z,34.58
2018-03-22T00:53:26.029Z,39.38
2018-03-22T00:55:54.164Z,31.03
2018-03-22T00:58:22.293Z,36.70
2018-03-22T01:00:50.475Z,31.70
2018-03-22T01:03:18.641Z,26.90
2018-03-22T01:05:46.819Z,30.53
2018-03-22T01:08:14.962Z,32.83
2018-03-22T01:10:43.554Z,30.23
2018-03-22T01:13:11.773Z,40.30
2018-03-22T01:15:39.916Z,34.05
2018-03-22T01:18:08.059Z,28.20
2018-03-22T01:20:36.204Z,32.30
2018-03-22T01:23:04.387Z,35.17
2018-03-22T01:25:32.616Z,32.60
2018-03-22T01:28:00.805Z,32.70
2018-03-22T01:30:36.828Z,36.93
2018-03-22T01:33:04.970Z,32.57
2018-03-22T01:35:33.105Z,41.23
2018-03-22T01:38:01.232Z,38.27
2018-03-22T01:40:29.379Z,38.53
2018-03-22T01:42:57.531Z,40.95
2018-03-22T01:45:25.664Z,38.90
2018-03-22T01:47:53.834Z,38.47
2018-03-22T01:50:21.959Z,36.30
2018-03-22T01:53:02.005Z,40.53
2018-03-22T01:55:30.142Z,40.03
2018-03-22T01:57:58.303Z,37.17
2018-03-22T02:00:26.540Z,38.88
2018-03-22T02:02:54.666Z,40.95
2018-03-22T02:05:22.824Z,36.17
2018-03-22T02:07:50.952Z,40.10
2018-03-22T02:10:19.108Z,38.77
2018-03-22T02:12:47.249Z,36.80
2018-03-22T02:15:15.422Z,36.73
2018-03-22T02:17:43.544Z,36.70
2018-03-22T02:20:11.697Z,37.30
2018-03-22T02:22:39.875Z,40.40
2018-03-22T02:25:08.095Z,35.63
2018-03-22T02:27:36.334Z,29.13
2018-03-22T02:30:04.512Z,40.70
2018-03-22T02:32:32.673Z,38.03
2018-03-22T02:35:00.797Z,39.33
2018-03-22T02:37:28.921Z,33.47
2018-03-22T02:39:57.113Z,42.30
2018-03-22T02:42:25.333Z,36.63
2018-03-22T02:44:53.488Z,31.67
2018-03-22T02:47:21.663Z,38.03
2018-03-22T02:49:49.837Z,37.17
2018-03-22T02:52:18.078Z,31.00
2018-03-22T02:54:46.217Z,35.63
2018-03-22T02:57:14.357Z,33.22
2018-03-22T02:59:42.555Z,34.30
2018-03-22T03:02:10.735Z,37.83
2018-03-22T03:04:38.920Z,40.83
2018-03-22T03:07:07.113Z,35.07
2018-03-22T03:09:35.273Z,42.90
2018-03-22T03:12:03.456Z,37.50
2018-03-22T03:14:31.619Z,33.83
2018-03-22T03:16:59.753Z,42.83
2018-03-22T03:19:27.947Z,34.33
2018-03-22T03:21:56.076Z,38.93
2018-03-22T03:24:24.235Z,36.50
2018-03-22T03:26:52.447Z,33.80
2018-03-22T03:29:20.675Z,43.90
2018-03-22T03:31:48.833Z,38.60
2018-03-22T03:34:16.988Z,36.17
2018-03-22T03:36:45.144Z,34.90
2018-03-22T03:39:13.354Z,33.83
2018-03-22T03:41:41.512Z,39.90
2018-03-22T03:44:09.652Z,35.37
2018-03-22T03:46:37.804Z,34.60
2018-03-22T03:49:05.982Z,30.90
2018-03-22T03:51:34.183Z,32.50
2018-03-22T03:54:02.303Z,45.53
2018-03-22T03:56:30.484Z,33.20
2018-03-22T03:58:58.667Z,34.97
2018-03-22T04:01:26.798Z,30.50
2018-03-22T04:03:54.990Z,37.50
2018-03-22T04:06:23.147Z,39.57
2018-03-22T04:08:51.264Z,34.33
2018-03-22T04:11:19.445Z,37.47
2018-03-22T04:13:47.743Z,35.65
2018-03-22T04:16:15.909Z,42.97
2018-03-22T04:18:44.081Z,30.90
2018-03-22T04:21:12.205Z,35.00
2018-03-22T04:23:40.339Z,37.10
2018-03-22T04:26:08.508Z,43.63
2018-03-22T04:28:36.704Z,31.90
2018-03-22T04:31:04.826Z,41.77
2018-03-22T04:33:32.984Z,44.40
2018-03-22T04:36:01.216Z,33.93
2018-03-22T04:38:29.348Z,39.03
2018-03-22T04:40:57.515Z,30.93
2018-03-22T04:43:25.646Z,33.67
2018-03-22T04:45:53.797Z,33.80
2018-03-22T04:48:21.943Z,29.10
2018-03-22T04:50:50.128Z,30.43
2018-03-22T04:53:18.264Z,36.50
2018-03-22T04:55:46.396Z,33.87
2018-03-22T04:58:14.544Z,28.10
2018-03-22T05:00:42.746Z,35.63
2018-03-22T05:03:10.859Z,38.33
2018-03-22T05:05:38.986Z,29.30
2018-03-22T05:08:07.169Z,45.40
2018-03-22T05:10:35.295Z,35.30
2018-03-22T05:13:03.453Z,37.77
2018-03-22T05:15:31.599Z,41.43
2018-03-22T05:17:59.755Z,38.83
2018-03-22T05:20:27.920Z,36.08
2018-03-22T05:22:56.068Z,41.57
2018-03-22T05:25:24.226Z,38.90
2018-03-22T05:27:52.400Z,34.07
2018-03-22T05:30:20.558Z,33.03
2018-03-22T05:32:48.724Z,34.40
2018-03-22T05:35:16.881Z,32.63
2018-03-22T05:37:45.027Z,33.80
2018-03-22T05:40:13.193Z,27.23
2018-03-22T05:42:41.471Z,29.02
2018-03-22T05:45:09.988Z,30.33
2018-03-22T05:47:38.143Z,38.00
2018-03-22T05:50:06.316Z,34.70
2018-03-22T05:52:34.464Z,40.43
2018-03-22T05:55:03.518Z,34.60
2018-03-22T05:57:31.656Z,34.07
2018-03-22T05:59:59.853Z,36.28
2018-03-22T06:02:27.983Z,34.63
2018-03-22T06:04:56.132Z,35.15
2018-03-22T06:07:24.258Z,47.30
2018-03-22T06:09:52.386Z,34.73
2018-03-22T06:12:20.552Z,28.20
2018-03-22T06:14:48.712Z,36.23
2018-03-22T06:17:16.886Z,28.80
2018-03-22T06:19:45.027Z,30.70
2018-03-22T06:22:13.182Z,24.60
2018-03-22T06:24:41.303Z,33.73
2018-03-22T06:27:09.474Z,42.43
2018-03-22T06:29:37.601Z,32.43
2018-03-22T06:32:05.763Z,29.90
2018-03-22T06:34:33.907Z,34.53
2018-03-22T06:37:02.036Z,30.50
2018-03-22T06:39:30.166Z,46.90
2018-03-22T06:41:58.424Z,31.27
2018-03-22T06:44:26.615Z,33.65
2018-03-22T06:46:54.744Z,36.17
2018-03-22T06:49:22.927Z,40.53
2018-03-22T06:51:51.133Z,70.63
2018-03-22T06:54:20.091Z,39.63
2018-03-22T06:56:48.231Z,38.73
2018-03-22T06:59:16.357Z,36.50
2018-03-22T07:01:44.492Z,39.80
2018-03-22T07:04:12.632Z,30.77
2018-03-22T07:06:40.752Z,26.97
2018-03-22T07:09:08.976Z,35.83
2018-03-22T07:11:37.102Z,37.40
2018-03-22T07:14:05.236Z,37.63
2018-03-22T07:16:33.655Z,30.55
2018-03-22T07:19:01.799Z,34.80
2018-03-22T07:21:29.937Z,29.55
2018-03-22T07:23:58.045Z,46.73
2018-03-22T07:26:26.165Z,42.60
2018-03-22T07:28:54.285Z,41.53
2018-03-22T07:31:22.404Z,37.45
2018-03-22T07:33:50.779Z,43.37
2018-03-22T07:36:18.912Z,42.40
2018-03-22T07:38:47.032Z,52.37
2018-03-22T07:41:15.161Z,45.70
2018-03-22T07:43:43.289Z,47.97
2018-03-22T07:46:11.407Z,51.17
2018-03-22T07:48:39.535Z,58.60
2018-03-22T07:51:07.651Z,55.13
2018-03-22T07:53:35.781Z,55.87
2018-03-22T07:56:03.899Z,59.93
2018-03-22T07:58:32.046Z,56.40
2018-03-22T08:01:00.167Z,54.58
2018-03-22T08:03:28.295Z,59.97
2018-03-22T08:05:56.482Z,66.27
2018-03-22T08:08:24.551Z,58.77
2018-03-22T08:10:52.702Z,63.20
2018-03-22T08:13:21.264Z,54.70
2018-03-22T08:15:49.409Z,55.47
2018-03-22T08:18:17.525Z,56.97
2018-03-22T08:20:45.656Z,58.27
2018-03-22T08:23:13.846Z,52.43
2018-03-22T08:25:41.973Z,57.80
2018-03-22T08:28:10.100Z,49.60
2018-03-22T08:30:38.224Z,52.60
2018-03-22T08:33:06.502Z,56.57
2018-03-22T08:35:34.648Z,57.13
2018-03-22T08:38:02.768Z,40.83
2018-03-22T08:40:30.919Z,44.47
2018-03-22T08:42:59.045Z,52.90
2018-03-22T08:45:27.163Z,42.47
2018-03-22T08:47:55.291Z,42.37
2018-03-22T08:50:23.435Z,42.45
2018-03-22T08:52:51.552Z,42.10
2018-03-22T08:55:19.698Z,39.60
2018-03-22T08:57:47.827Z,34.77
2018-03-22T09:00:15.929Z,36.03
2018-03-22T09:02:44.101Z,43.60
2018-03-22T09:05:12.261Z,42.47
2018-03-22T09:08:10.834Z,35.53
2018-03-22T09:11:16.768Z,43.27
2018-03-22T09:14:22.833Z,46.47
2018-03-22T09:17:28.905Z,32.73
2018-03-22T09:20:34.983Z,28.10
2018-03-22T09:23:41.023Z,31.17
2018-03-22T09:26:53.444Z,33.83
2018-03-22T09:29:59.560Z,34.07
2018-03-22T09:32:57.985Z,33.47
2018-03-22T09:35:27.827Z,30.80
2018-03-22T09:37:56.011Z,34.20
2018-03-22T09:40:24.143Z,30.50
2018-03-22T09:42:52.273Z,32.40
2018-03-22T09:45:20.394Z,40.42
2018-03-22T09:47:48.546Z,29.43
2018-03-22T09:50:16.724Z,33.10
2018-03-22T09:52:44.848Z,34.03
2018-03-22T09:55:13.000Z,29.03
2018-03-22T09:57:41.232Z,40.20
2018-03-22T10:00:09.347Z,33.37
2018-03-22T10:02:37.465Z,33.90
2018-03-22T10:05:05.629Z,23.00
2018-03-22T10:07:33.746Z,26.87
2018-03-22T10:10:01.880Z,29.17
2018-03-22T10:12:30.016Z,28.23
2018-03-22T10:14:58.164Z,35.73
2018-03-22T10:17:26.312Z,34.65
2018-03-22T10:19:54.419Z,30.73
2018-03-22T10:22:22.550Z,27.17
2018-03-22T10:24:50.667Z,25.00
2018-03-22T10:27:18.803Z,26.42
2018-03-22T10:29:46.953Z,25.27
2018-03-22T10:32:15.064Z,26.53
2018-03-22T10:34:43.191Z,26.13
2018-03-22T10:37:11.324Z,28.63
2018-03-22T10:39:39.463Z,26.27
2018-03-22T10:42:07.601Z,25.43
2018-03-22T10:44:35.736Z,25.10
2018-03-22T10:47:03.872Z,24.20
2018-03-22T10:49:31.997Z,25.70
2018-03-22T10:52:00.151Z,28.90
2018-03-22T10:54:28.321Z,21.07
2018-03-22T10:56:56.505Z,21.20
2018-03-22T10:59:24.771Z,21.20
2018-03-22T11:01:58.626Z,20.03
2018-03-22T11:04:26.764Z,20.57
2018-03-22T11:06:54.910Z,25.00
2018-03-22T11:09:23.029Z,16.15
2018-03-22T11:11:51.195Z,21.90
2018-03-22T11:14:19.313Z,19.20
2018-03-22T11:16:47.445Z,20.87
2018-03-22T11:19:15.592Z,21.43
2018-03-22T11:21:43.742Z,18.10
2018-03-22T11:24:11.880Z,26.20
2018-03-22T11:26:40.033Z,21.03
2018-03-22T11:29:08.208Z,18.20
2018-03-22T11:31:36.346Z,22.58
2018-03-22T11:34:04.479Z,23.17
2018-03-22T11:36:32.607Z,24.60
2018-03-22T11:39:00.804Z,19.77
2018-03-22T11:41:28.968Z,17.83
2018-03-22T11:43:57.079Z,21.00
2018-03-22T11:46:25.228Z,19.77
2018-03-22T11:48:53.376Z,17.57
2018-03-22T11:51:21.527Z,16.80
2018-03-22T11:53:49.708Z,16.50
2018-03-22T11:56:17.817Z,19.90
2018-03-22T11:58:45.958Z,21.70
2018-03-22T12:01:14.109Z,19.17
2018-03-22T12:03:42.238Z,21.53
2018-03-22T12:06:10.367Z,19.30
2018-03-22T12:08:38.495Z,20.85
2018-03-22T12:11:06.788Z,20.33
2018-03-22T12:13:34.880Z,19.63
2018-03-22T12:16:03.022Z,16.73
2018-03-22T12:18:31.180Z,24.80
2018-03-22T12:20:59.324Z,17.20
2018-03-22T12:23:27.469Z,23.97
2018-03-22T12:25:55.581Z,19.10
2018-03-22T12:28:23.711Z,23.20
2018-03-22T12:30:51.846Z,20.93
2018-03-22T12:33:20.002Z,16.17
2018-03-22T12:35:48.202Z,16.77
2018-03-22T12:38:16.342Z,17.80
2018-03-22T12:40:44.464Z,17.10
2018-03-22T12:43:12.651Z,15.57
2018-03-22T12:45:40.740Z,17.57
2018-03-22T12:48:08.885Z,21.73
2018-03-22T12:50:37.018Z,16.75
2018-03-22T12:53:05.191Z,20.03
2018-03-22T12:55:33.379Z,16.77
2018-03-22T12:58:01.535Z,20.47
2018-03-22T13:00:29.659Z,18.80
2018-03-22T13:02:59.315Z,18.77
2018-03-22T13:05:27.448Z,18.25
2018-03-22T13:07:55.590Z,19.20
2018-03-22T13:10:23.734Z,19.80
2018-03-22T13:12:51.858Z,17.30
2018-03-22T13:15:19.985Z,17.02
2018-03-22T13:17:48.113Z,15.43
2018-03-22T13:20:16.325Z,16.95
2018-03-22T13:22:44.394Z,19.50
2018-03-22T13:25:12.526Z,15.53
2018-03-22T13:27:40.684Z,19.97
2018-03-22T13:30:08.826Z,15.63
2018-03-22T13:32:37.008Z,18.43
2018-03-22T13:35:05.180Z,21.27
2018-03-22T13:37:33.444Z,14.40
2018-03-22T13:40:01.593Z,21.87
2018-03-22T13:42:29.747Z,16.17
2018-03-22T13:44:57.899Z,19.07
2018-03-22T13:47:26.079Z,18.62
2018-03-22T13:49:54.213Z,19.13
2018-03-22T13:52:22.645Z,14.93
2018-03-22T13:54:50.765Z,18.70
2018-03-22T13:57:18.885Z,18.48
2018-03-22T13:59:47.020Z,16.07
2018-03-22T14:02:15.133Z,18.30
2018-03-22T14:04:43.242Z,19.50
2018-03-22T14:07:11.399Z,18.33
2018-03-22T14:09:39.532Z,21.07
2018-03-22T14:12:07.658Z,16.83
2018-03-22T14:14:35.803Z,17.63
2018-03-22T14:17:03.947Z,16.50
2018-03-22T14:19:32.069Z,22.70
2018-03-22T14:22:00.230Z,21.30
2018-03-22T14:24:28.360Z,17.00
2018-03-22T14:26:56.485Z,18.25
2018-03-22T14:29:24.670Z,20.95
2018-03-22T14:31:52.792Z,31.70
2018-03-22T14:34:20.921Z,22.30
2018-03-22T14:36:49.121Z,21.30
2018-03-22T14:39:17.247Z,22.23
2018-03-22T14:41:45.391Z,23.17
2018-03-22T14:44:13.551Z,20.33
2018-03-22T14:46:41.660Z,23.27
2018-03-22T14:49:10.671Z,20.02
2018-03-22T14:51:38.984Z,16.47
2018-03-22T14:54:07.088Z,19.30
2018-03-22T14:56:37.659Z,23.43
2018-03-22T14:59:05.817Z,18.10
2018-03-22T15:01:33.982Z,24.30
2018-03-22T15:04:02.146Z,23.23
2018-03-22T15:06:30.337Z,24.83
2018-03-22T15:08:58.483Z,23.67
2018-03-22T15:11:26.634Z,23.40
2018-03-22T15:13:54.796Z,27.13
2018-03-22T15:16:22.930Z,26.80
2018-03-22T15:18:51.076Z,28.10
2018-03-22T15:21:19.382Z,25.90
2018-03-22T15:23:47.509Z,33.17
2018-03-22T15:26:15.671Z,31.10
2018-03-22T15:28:43.833Z,26.60
2018-03-22T15:31:11.986Z,28.73
2018-03-22T15:33:40.113Z,31.27
2018-03-22T15:36:08.267Z,27.77
2018-03-22T15:38:36.404Z,25.80
2018-03-22T15:41:04.571Z,25.07
2018-03-22T15:43:34.124Z,24.60
2018-03-22T15:46:02.280Z,26.50
2018-03-22T15:48:30.429Z,25.10
2018-03-22T15:50:58.965Z,22.33
2018-03-22T15:53:27.095Z,32.40
2018-03-22T15:55:55.229Z,24.57
2018-03-22T15:58:23.352Z,22.47
2018-03-22T16:00:51.484Z,25.10
2018-03-22T16:03:19.640Z,26.00
2018-03-22T16:05:47.791Z,28.00
2018-03-22T16:08:15.921Z,24.13
2018-03-22T16:10:44.044Z,27.47
2018-03-22T16:13:12.171Z,24.57
2018-03-22T16:15:40.323Z,23.80
2018-03-22T16:18:08.470Z,24.97
2018-03-22T16:20:36.619Z,26.17
2018-03-22T16:23:04.747Z,24.70
2018-03-22T16:25:32.870Z,29.93
2018-03-22T16:28:01.000Z,23.30
2018-03-22T16:30:29.224Z,26.57
2018-03-22T16:32:57.358Z,41.22
2018-03-22T16:35:25.519Z,33.28
2018-03-22T16:37:53.729Z,24.30
2018-03-22T16:40:21.867Z,27.97
2018-03-22T16:42:49.991Z,25.10
2018-03-22T16:45:18.141Z,42.07
2018-03-22T16:47:46.812Z,29.43
2018-03-22T16:50:14.950Z,40.53
2018-03-22T16:52:43.084Z,27.52
2018-03-22T16:55:11.213Z,25.67
2018-03-22T16:57:39.379Z,27.33
2018-03-22T17:00:07.526Z,48.47
2018-03-22T17:02:35.655Z,27.83
2018-03-22T17:05:03.846Z,30.90
2018-03-22T17:07:32.005Z,33.30
2018-03-22T17:10:00.203Z,26.63
2018-03-22T17:12:28.358Z,29.60
2018-03-22T17:14:56.480Z,33.50
2018-03-22T17:17:24.604Z,42.33
2018-03-22T17:19:52.753Z,33.47
2018-03-22T17:22:20.933Z,28.00
2018-03-22T17:24:49.005Z,36.80
2018-03-22T17:27:17.138Z,34.33
2018-03-22T17:29:45.270Z,41.33
2018-03-22T17:32:13.447Z,79.23
2018-03-22T17:34:41.583Z,64.37
2018-03-22T17:37:10.673Z,61.80
2018-03-22T17:39:38.804Z,68.57
2018-03-22T17:42:06.945Z,46.17
2018-03-22T17:44:35.095Z,45.53
2018-03-22T17:47:03.189Z,44.37
2018-03-22T17:49:31.315Z,45.07
2018-03-22T17:51:59.463Z,40.93
2018-03-22T17:54:27.567Z,32.20
2018-03-22T17:56:55.735Z,31.03
2018-03-22T17:59:23.879Z,27.57
2018-03-22T18:01:52.029Z,30.87
2018-03-22T18:04:20.186Z,35.67
2018-03-22T18:06:48.324Z,40.40
2018-03-22T18:09:16.464Z,46.43
2018-03-22T18:11:44.618Z,39.03
2018-03-22T18:14:12.743Z,33.00
2018-03-22T18:16:40.899Z,35.53
2018-03-22T18:19:09.046Z,39.00
2018-03-22T18:21:37.192Z,49.33
2018-03-22T18:24:05.297Z,43.30
2018-03-22T18:26:33.459Z,38.57
2018-03-22T18:29:01.605Z,31.40
2018-03-22T18:31:29.746Z,43.20
2018-03-22T18:33:57.914Z,33.83
2018-03-22T18:36:26.044Z,35.57
2018-03-22T18:38:54.202Z,35.70
2018-03-22T18:41:22.328Z,30.23
2018-03-22T18:43:50.483Z,29.70
2018-03-22T18:46:18.632Z,31.47
2018-03-22T18:48:46.773Z,35.37
2018-03-22T18:51:14.883Z,28.40
2018-03-22T18:53:43.020Z,29.23
2018-03-22T18:56:11.182Z,33.50
2018-03-22T18:58:39.327Z,23.67
2018-03-22T19:01:07.494Z,26.57
2018-03-22T19:03:35.600Z,21.50
2018-03-22T19:06:03.726Z,21.90
2018-03-22T19:08:31.867Z,19.00
2018-03-22T19:11:00.005Z,22.77
2018-03-22T19:13:28.151Z,20.10
2018-03-22T19:15:56.290Z,18.40
2018-03-22T19:18:24.421Z,17.33
2018-03-22T19:20:52.571Z,22.33
2018-03-22T19:23:20.724Z,14.93
2018-03-22T19:25:48.872Z,12.70
2018-03-22T19:28:17.008Z,14.27
2018-03-22T19:30:45.152Z,12.80
2018-03-22T19:33:13.350Z,11.90
2018-03-22T19:35:41.449Z,9.90
2018-03-22T19:38:09.585Z,18.57
2018-03-22T19:40:37.743Z,24.37
2018-03-22T19:43:05.991Z,37.67
2018-03-22T19:45:34.139Z,27.83
2018-03-22T19:48:02.256Z,31.80
2018-03-22T19:50:30.382Z,40.03
2018-03-22T19:52:58.549Z,89.40
2018-03-22T19:55:26.699Z,44.53
2018-03-22T19:57:54.912Z,68.43
2018-03-22T20:00:23.040Z,51.30
2018-03-22T20:02:51.185Z,49.70
2018-03-22T20:05:19.331Z,50.03
2018-03-22T20:07:47.487Z,45.83
2018-03-22T20:10:15.641Z,54.77
2018-03-22T20:12:44.321Z,57.07
2018-03-22T20:15:12.507Z,36.77
2018-03-22T20:17:40.653Z,33.55
2018-03-22T20:20:08.800Z,33.03
2018-03-22T20:22:36.926Z,38.87
2018-03-22T20:25:05.066Z,34.87
2018-03-22T20:27:33.208Z,39.23
2018-03-22T20:30:01.328Z,40.00
2018-03-22T20:32:29.481Z,37.10
2018-03-22T20:34:57.639Z,42.23
2018-03-22T20:37:25.796Z,35.63
2018-03-22T20:39:53.922Z,37.27
2018-03-22T20:42:22.051Z,37.13
2018-03-22T20:44:50.181Z,32.83
2018-03-22T20:47:18.395Z,27.13
2018-03-22T20:49:46.523Z,26.70
2018-03-22T20:52:14.660Z,23.13
2018-03-22T20:54:42.928Z,25.20
2018-03-22T20:57:11.033Z,19.97
2018-03-22T20:59:39.147Z,22.03
2018-03-22T21:02:07.307Z,17.63
2018-03-22T21:04:35.430Z,21.03
2018-03-22T21:07:03.577Z,17.57
2018-03-22T21:09:31.682Z,14.50
2018-03-22T21:11:59.844Z,14.47
2018-03-22T21:14:27.978Z,13.67
2018-03-22T21:16:56.539Z,13.23
2018-03-22T21:19:24.699Z,11.47
2018-03-22T21:21:52.815Z,15.33
2018-03-22T21:24:20.955Z,15.83
2018-03-22T21:26:49.095Z,14.53
2018-03-22T21:29:17.208Z,26.73
2018-03-22T21:31:45.355Z,10.47
2018-03-22T21:34:13.536Z,14.60
2018-03-22T21:36:41.686Z,10.77
2018-03-22T21:39:10.060Z,10.70
2018-03-22T21:44:40.463Z,10.77
2018-03-22T21:47:20.316Z,10.00
2018-03-22T21:49:48.495Z,11.40
2018-03-22T21:52:28.789Z,17.83
2018-03-22T21:54:56.940Z,14.63
2018-03-22T21:57:25.077Z,13.48
2018-03-22T21:59:53.256Z,16.47
2018-03-22T22:02:21.451Z,13.13
2018-03-22T22:04:49.578Z,12.50
2018-03-22T22:07:17.707Z,13.50
2018-03-22T22:09:45.859Z,15.47
2018-03-22T22:12:13.986Z,12.93
2018-03-22T22:14:42.139Z,13.80
2018-03-22T22:17:10.289Z,15.27
2018-03-22T22:19:38.415Z,16.70
2018-03-22T22:22:06.550Z,18.20
2018-03-22T22:24:34.830Z,15.97
2018-03-22T22:27:02.938Z,15.93
2018-03-22T22:29:31.065Z,15.50
2018-03-22T22:31:59.187Z,21.63
2018-03-22T22:34:27.331Z,16.97
2018-03-22T22:36:55.447Z,15.10
2018-03-22T22:39:23.614Z,17.58
2018-03-22T22:41:51.773Z,17.70
2018-03-22T22:44:19.947Z,21.53
2018-03-22T22:46:48.202Z,17.10
2018-03-22T22:49:16.346Z,22.13
2018-03-22T22:51:44.516Z,19.00
2018-03-22T22:54:12.640Z,16.53
2018-03-22T22:56:40.814Z,18.50
2018-03-22T22:59:08.887Z,22.50
2018-03-22T23:01:37.006Z,26.80
2018-03-22T23:04:05.159Z,17.53
2018-03-22T23:06:33.288Z,21.83
2018-03-22T23:09:01.466Z,24.77
2018-03-22T23:11:29.704Z,24.10
2018-03-22T23:13:57.820Z,21.97
2018-03-22T23:16:25.946Z,26.97
2018-03-22T23:18:54.084Z,31.40
2018-03-22T23:21:22.205Z,24.30
2018-03-22T23:23:50.331Z,25.47
2018-03-22T23:26:18.463Z,23.50
2018-03-22T23:28:46.617Z,38.45
2018-03-22T23:31:14.738Z,24.35
2018-03-22T23:33:43.335Z,26.63
2018-03-22T23:36:11.523Z,29.07
2018-03-22T23:38:40.642Z,26.30
2018-03-22T23:41:12.656Z,31.17
2018-03-22T23:43:40.783Z,27.97
2018-03-22T23:46:08.941Z,29.00
2018-03-22T23:48:37.974Z,33.03
2018-03-22T23:51:06.160Z,28.00
2018-03-22T23:53:34.302Z,29.00
2018-03-22T23:56:02.416Z,34.53
2018-03-22T23:58:30.556Z,35.50
